createdAt,value
2018-06-19T00:01:25.438Z,12.23
2018-06-19T00:03:52.707Z,9.57
2018-06-19T00:06:19.991Z,12.43
2018-06-19T00:08:47.279Z,9.33
2018-06-19T00:11:14.588Z,9.63
2018-06-19T00:13:41.852Z,10.17
2018-06-19T00:16:09.119Z,9.03
2018-06-19T00:18:44.378Z,11.93
2018-06-19T00:21:15.463Z,11.63
2018-06-19T00:23:42.776Z,10.17
2018-06-19T00:26:10.027Z,14.77
2018-06-19T00:28:39.823Z,10.37
2018-06-19T00:31:07.105Z,12.90
2018-06-19T00:33:34.395Z,11.17
2018-06-19T00:36:01.952Z,10.67
2018-06-19T00:38:29.234Z,12.60
2018-06-19T00:40:56.503Z,9.73
2018-06-19T00:43:23.760Z,12.00
2018-06-19T00:45:51.040Z,12.20
2018-06-19T00:48:18.307Z,10.70
2018-06-19T00:50:45.566Z,12.80
2018-06-19T00:53:12.867Z,9.70
2018-06-19T00:55:40.126Z,11.87
2018-06-19T00:58:07.411Z,13.00
2018-06-19T01:00:34.664Z,12.53
2018-06-19T01:03:01.972Z,11.07
2018-06-19T01:05:29.231Z,10.00
2018-06-19T01:07:56.504Z,10.87
2018-06-19T01:10:23.774Z,11.23
2018-06-19T01:12:51.097Z,10.47
2018-06-19T01:15:18.370Z,12.53
2018-06-19T01:17:45.603Z,10.87
2018-06-19T01:20:12.882Z,11.37
2018-06-19T01:22:40.156Z,10.60
2018-06-19T01:25:07.439Z,11.00
2018-06-19T01:27:34.691Z,12.40
2018-06-19T01:30:01.948Z,12.17
2018-06-19T01:32:29.200Z,10.97
2018-06-19T01:34:56.600Z,11.43
2018-06-19T01:37:24.106Z,13.23
2018-06-19T01:39:51.384Z,11.23
2018-06-19T01:42:18.646Z,13.47
2018-06-19T01:44:45.923Z,12.03
2018-06-19T01:47:13.188Z,12.13
2018-06-19T01:49:40.463Z,10.17
2018-06-19T01:52:07.741Z,16.27
2018-06-19T01:54:35.032Z,11.90
2018-06-19T01:57:02.324Z,13.40
2018-06-19T01:59:29.688Z,10.93
2018-06-19T02:01:56.986Z,13.80
2018-06-19T02:04:24.259Z,11.00
2018-06-19T02:06:51.539Z,10.43
2018-06-19T02:09:25.669Z,15.90
2018-06-19T02:11:52.947Z,14.20
2018-06-19T02:14:20.203Z,13.37
2018-06-19T02:16:47.492Z,11.87
2018-06-19T02:19:14.755Z,12.47
2018-06-19T02:21:42.028Z,10.40
2018-06-19T02:24:09.301Z,11.00
2018-06-19T02:26:36.567Z,12.27
2018-06-19T02:29:03.900Z,16.97
2018-06-19T02:31:31.155Z,11.60
2018-06-19T02:33:58.398Z,10.13
2018-06-19T02:36:25.654Z,9.53
2018-06-19T02:38:52.914Z,9.87
2018-06-19T02:41:20.184Z,11.10
2018-06-19T02:43:47.482Z,10.40
2018-06-19T02:46:14.762Z,12.73
2018-06-19T02:48:42.031Z,11.13
2018-06-19T02:51:09.292Z,13.17
2018-06-19T02:53:36.562Z,9.53
2018-06-19T02:56:03.872Z,11.97
2018-06-19T02:58:31.171Z,11.73
2018-06-19T03:00:58.887Z,11.63
2018-06-19T03:03:26.157Z,11.77
2018-06-19T03:05:53.420Z,12.80
2018-06-19T03:08:20.698Z,11.60
2018-06-19T03:10:47.967Z,10.07
2018-06-19T03:13:15.255Z,9.17
2018-06-19T03:15:42.487Z,10.73
2018-06-19T03:18:09.770Z,10.47
2018-06-19T03:20:37.042Z,9.97
2018-06-19T03:23:04.523Z,9.93
2018-06-19T03:25:31.762Z,11.73
2018-06-19T03:27:59.031Z,10.63
2018-06-19T03:30:26.292Z,10.50
2018-06-19T03:32:53.544Z,11.63
2018-06-19T03:35:20.803Z,9.17
2018-06-19T03:37:48.071Z,9.27
2018-06-19T03:40:15.316Z,10.30
2018-06-19T03:42:43.049Z,10.80
2018-06-19T03:45:10.301Z,10.27
2018-06-19T03:47:37.592Z,11.60
2018-06-19T03:50:05.195Z,10.63
2018-06-19T03:52:32.454Z,10.63
2018-06-19T03:54:59.695Z,10.33
2018-06-19T03:57:26.964Z,10.70
2018-06-19T03:59:54.240Z,11.93
2018-06-19T04:02:21.478Z,10.73
2018-06-19T04:04:48.758Z,11.40
2018-06-19T04:07:15.999Z,11.63
2018-06-19T04:09:43.258Z,9.53
2018-06-19T04:12:10.514Z,9.07
2018-06-19T04:14:37.779Z,10.63
2018-06-19T04:17:05.206Z,12.70
2018-06-19T04:19:32.443Z,17.13
2018-06-19T04:21:59.706Z,13.20
2018-06-19T04:24:27.812Z,14.20
2018-06-19T04:26:55.624Z,10.43
2018-06-19T04:29:22.893Z,10.27
2018-06-19T04:31:50.164Z,9.07
2018-06-19T04:34:17.419Z,8.63
2018-06-19T04:36:45.315Z,10.47
2018-06-19T04:39:12.763Z,9.10
2018-06-19T04:41:40.257Z,9.27
2018-06-19T04:44:07.882Z,12.47
2018-06-19T04:46:35.303Z,9.13
2018-06-19T04:49:02.545Z,9.60
2018-06-19T04:51:29.787Z,10.80
2018-06-19T04:53:57.036Z,9.73
2018-06-19T04:56:24.287Z,10.50
2018-06-19T04:58:51.558Z,10.53
2018-06-19T05:01:18.899Z,9.77
2018-06-19T05:03:46.156Z,9.13
2018-06-19T05:06:13.401Z,9.57
2018-06-19T05:08:40.919Z,8.53
2018-06-19T05:11:08.170Z,8.07
2018-06-19T05:13:35.408Z,12.67
2018-06-19T05:16:02.683Z,10.60
2018-06-19T05:18:29.923Z,9.97
2018-06-19T05:20:57.210Z,10.00
2018-06-19T05:23:24.475Z,9.95
2018-06-19T05:25:51.735Z,8.20
2018-06-19T05:28:18.975Z,10.00
2018-06-19T05:30:46.247Z,14.33
2018-06-19T05:33:13.502Z,10.68
2018-06-19T05:35:40.791Z,12.13
2018-06-19T05:38:08.037Z,6.65
2018-06-19T05:40:35.280Z,9.90
2018-06-19T05:43:02.632Z,9.10
2018-06-19T05:45:29.874Z,8.03
2018-06-19T05:47:57.166Z,10.55
2018-06-19T05:50:24.419Z,7.70
2018-06-19T05:52:51.770Z,10.50
2018-06-19T05:55:19.132Z,10.35
2018-06-19T05:57:46.392Z,9.10
2018-06-19T06:00:13.662Z,10.00
2018-06-19T06:02:40.922Z,6.28
2018-06-19T06:05:08.175Z,8.05
2018-06-19T06:07:35.435Z,8.00
2018-06-19T06:10:02.708Z,9.78
2018-06-19T06:12:29.972Z,6.90
2018-06-19T06:14:57.612Z,9.33
2018-06-19T06:17:24.875Z,8.85
2018-06-19T06:19:52.156Z,8.03
2018-06-19T06:22:19.447Z,6.42
2018-06-19T06:24:46.687Z,9.73
2018-06-19T06:27:14.002Z,7.65
2018-06-19T06:29:41.256Z,9.53
2018-06-19T06:32:08.549Z,7.62
2018-06-19T06:34:35.800Z,11.48
2018-06-19T06:37:03.115Z,8.98
2018-06-19T06:39:30.388Z,5.78
2018-06-19T06:41:57.627Z,6.28
2018-06-19T06:44:24.896Z,8.90
2018-06-19T06:46:52.136Z,7.33
2018-06-19T06:49:19.419Z,4.85
2018-06-19T06:51:46.679Z,6.17
2018-06-19T06:54:13.979Z,7.97
2018-06-19T06:56:41.223Z,4.55
2018-06-19T06:59:08.470Z,10.15
2018-06-19T07:01:35.691Z,6.50
2018-06-19T07:04:03.247Z,4.80
2018-06-19T07:06:30.903Z,5.80
2018-06-19T07:08:58.181Z,6.22
2018-06-19T07:11:25.414Z,7.03
2018-06-19T07:13:52.675Z,6.28
2018-06-19T07:16:19.952Z,7.28
2018-06-19T07:18:47.510Z,5.42
2018-06-19T07:21:14.768Z,5.20
2018-06-19T07:23:42.000Z,5.85
2018-06-19T07:26:09.329Z,6.05
2018-06-19T07:28:36.543Z,6.28
2018-06-19T07:31:03.944Z,4.62
2018-06-19T07:33:31.211Z,5.40
2018-06-19T07:35:58.474Z,6.70
2018-06-19T07:38:25.801Z,6.75
2018-06-19T07:40:53.059Z,8.90
2018-06-19T07:43:20.363Z,5.00
2018-06-19T07:45:47.611Z,6.22
2018-06-19T07:48:14.864Z,4.67
2018-06-19T07:50:42.125Z,6.45
2018-06-19T07:53:09.395Z,8.13
2018-06-19T07:55:36.711Z,7.17
2018-06-19T07:58:03.993Z,6.50
2018-06-19T08:00:31.284Z,5.42
2018-06-19T08:02:58.539Z,4.40
2018-06-19T08:05:25.799Z,6.72
2018-06-19T08:07:53.061Z,7.97
2018-06-19T08:10:20.293Z,5.17
2018-06-19T08:12:48.102Z,5.62
2018-06-19T08:15:15.363Z,4.42
2018-06-19T08:17:42.634Z,2.95
2018-06-19T08:20:10.291Z,5.78
2018-06-19T08:22:38.184Z,9.20
2018-06-19T08:25:05.447Z,5.25
2018-06-19T08:27:32.751Z,3.35
2018-06-19T08:29:59.958Z,3.02
2018-06-19T08:32:27.220Z,3.52
2018-06-19T08:34:54.477Z,3.42
2018-06-19T08:37:21.740Z,3.87
2018-06-19T08:39:48.964Z,4.62
2018-06-19T08:42:16.240Z,3.60
2018-06-19T08:44:43.481Z,3.45
2018-06-19T08:47:10.779Z,3.50
2018-06-19T08:49:38.087Z,2.95
2018-06-19T08:52:05.348Z,4.55
2018-06-19T08:54:32.612Z,3.70
2018-06-19T08:56:59.920Z,3.47
2018-06-19T08:59:27.218Z,2.92
2018-06-19T09:01:54.523Z,3.25
2018-06-19T09:04:21.869Z,4.50
2018-06-19T09:06:49.179Z,4.33
2018-06-19T09:09:16.437Z,4.80
2018-06-19T09:11:43.679Z,3.70
2018-06-19T09:14:10.927Z,3.17
2018-06-19T09:16:38.205Z,3.05
2018-06-19T09:19:05.485Z,5.28
2018-06-19T09:21:32.755Z,3.42
2018-06-19T09:24:00.059Z,6.15
2018-06-19T09:26:27.335Z,4.03
2018-06-19T09:28:54.594Z,8.53
2018-06-19T09:31:21.949Z,3.50
2018-06-19T09:33:49.312Z,3.42
2018-06-19T09:36:16.555Z,6.22
2018-06-19T09:38:43.820Z,6.58
2018-06-19T09:41:11.566Z,4.28
2018-06-19T09:43:38.854Z,3.87
2018-06-19T09:46:06.119Z,2.50
2018-06-19T09:48:33.374Z,3.77
2018-06-19T09:51:00.666Z,2.58
2018-06-19T09:53:27.927Z,4.45
2018-06-19T09:55:55.239Z,2.55
2018-06-19T09:58:22.620Z,2.35
2018-06-19T10:00:49.980Z,4.85
2018-06-19T10:03:17.378Z,4.97
2018-06-19T10:05:44.757Z,6.00
2018-06-19T10:08:11.980Z,6.35
2018-06-19T10:10:39.311Z,5.42
2018-06-19T10:13:07.052Z,2.80
2018-06-19T10:15:34.380Z,3.90
2018-06-19T10:18:01.691Z,4.20
2018-06-19T10:20:29.044Z,2.95
2018-06-19T10:22:56.288Z,2.85
2018-06-19T10:25:23.659Z,4.90
2018-06-19T10:27:50.963Z,5.78
2018-06-19T10:30:18.243Z,3.00
2018-06-19T10:32:45.596Z,2.35
2018-06-19T10:35:13.007Z,4.28
2018-06-19T10:37:40.267Z,2.47
2018-06-19T10:40:07.715Z,3.60
2018-06-19T10:42:35.031Z,3.22
2018-06-19T10:45:02.572Z,3.83
2018-06-19T10:47:29.908Z,3.10
2018-06-19T10:49:57.166Z,5.53
2018-06-19T10:52:24.436Z,3.65
2018-06-19T10:54:51.975Z,2.10
2018-06-19T10:57:19.260Z,2.60
2018-06-19T10:59:46.768Z,5.17
2018-06-19T11:02:14.090Z,2.70
2018-06-19T11:04:41.335Z,1.98
2018-06-19T11:07:08.722Z,3.58
2018-06-19T11:09:35.964Z,3.08
2018-06-19T11:12:03.235Z,2.33
2018-06-19T11:14:30.467Z,2.25
2018-06-19T11:16:57.740Z,4.17
2018-06-19T11:19:25.006Z,3.52
2018-06-19T11:21:52.472Z,4.17
2018-06-19T11:24:19.730Z,6.75
2018-06-19T11:26:47.032Z,3.02
2018-06-19T11:29:14.339Z,4.60
2018-06-19T11:31:41.582Z,2.58
2018-06-19T11:34:08.852Z,4.22
2018-06-19T11:36:36.121Z,5.72
2018-06-19T11:39:06.254Z,3.62
2018-06-19T11:41:33.519Z,4.53
2018-06-19T11:44:00.817Z,4.28
2018-06-19T11:46:28.068Z,1.90
2018-06-19T11:48:55.387Z,3.12
2018-06-19T11:51:22.743Z,3.50
2018-06-19T11:53:49.962Z,4.20
2018-06-19T11:56:17.223Z,2.35
2018-06-19T11:58:44.834Z,2.50
2018-06-19T12:01:12.146Z,4.33
2018-06-19T12:03:39.351Z,4.28
2018-06-19T12:06:06.604Z,6.40
2018-06-19T12:08:33.866Z,5.28
2018-06-19T12:11:01.167Z,3.90
2018-06-19T12:13:28.454Z,4.10
2018-06-19T12:15:55.756Z,2.40
2018-06-19T12:18:23.216Z,3.37
2018-06-19T12:20:50.538Z,2.10
2018-06-19T12:23:17.826Z,4.58
2018-06-19T12:25:45.077Z,3.02
2018-06-19T12:28:12.359Z,2.52
2018-06-19T12:30:39.619Z,2.87
2018-06-19T12:33:06.881Z,4.58
2018-06-19T12:35:34.155Z,3.83
2018-06-19T12:38:01.416Z,5.80
2018-06-19T12:40:28.696Z,2.47
2018-06-19T12:42:56.227Z,2.50
2018-06-19T12:45:23.500Z,2.77
2018-06-19T12:47:50.766Z,5.20
2018-06-19T12:50:31.838Z,3.45
2018-06-19T12:53:11.483Z,1.95
2018-06-19T12:55:50.898Z,1.82
2018-06-19T12:58:18.356Z,3.30
2018-06-19T13:00:45.796Z,5.00
2018-06-19T13:03:25.012Z,3.02
2018-06-19T13:06:04.065Z,2.60
2018-06-19T13:08:31.399Z,2.90
2018-06-19T13:10:58.986Z,2.75
2018-06-19T13:13:37.777Z,2.55
2018-06-19T13:16:10.896Z,2.65
2018-06-19T13:19:52.070Z,4.17
2018-06-19T13:22:19.361Z,2.95
2018-06-19T13:24:46.685Z,3.55
2018-06-19T13:27:14.179Z,2.25
2018-06-19T13:29:59.011Z,5.15
2018-06-19T13:32:26.606Z,4.35
2018-06-19T13:34:53.880Z,2.12
2018-06-19T13:37:21.203Z,1.82
2018-06-19T13:40:00.902Z,2.02
2018-06-19T13:42:39.644Z,2.35
2018-06-19T13:45:07.676Z,2.80
2018-06-19T13:47:34.977Z,2.02
2018-06-19T13:50:02.398Z,2.42
2018-06-19T13:52:29.682Z,3.02
2018-06-19T13:55:02.627Z,1.65
2018-06-19T13:57:42.768Z,4.22
2018-06-19T14:00:13.799Z,2.62
2018-06-19T14:02:41.185Z,2.02
2018-06-19T14:05:09.052Z,4.87
2018-06-19T14:07:46.592Z,2.42
2018-06-19T14:10:27.334Z,2.27
2018-06-19T14:12:56.884Z,1.80
2018-06-19T14:15:24.316Z,3.22
2018-06-19T14:17:51.586Z,2.08
2018-06-19T14:20:18.873Z,2.50
2018-06-19T14:22:46.136Z,3.10
2018-06-19T14:25:13.402Z,2.08
2018-06-19T14:27:40.674Z,4.72
2018-06-19T14:30:08.000Z,2.12
2018-06-19T14:32:35.405Z,3.50
2018-06-19T14:35:15.797Z,2.55
2018-06-19T14:37:43.342Z,2.25
2018-06-19T14:40:10.804Z,2.87
2018-06-19T14:42:38.107Z,3.62
2018-06-19T14:45:06.084Z,2.10
2018-06-19T14:47:33.356Z,1.98
2018-06-19T14:50:00.615Z,1.95
2018-06-19T14:52:28.114Z,2.87
2018-06-19T14:54:55.346Z,1.95
2018-06-19T14:57:22.590Z,2.92
2018-06-19T14:59:49.848Z,3.08
2018-06-19T15:02:17.086Z,2.17
2018-06-19T15:04:44.347Z,3.60
2018-06-19T15:07:11.627Z,1.85
2018-06-19T15:09:38.908Z,5.00
2018-06-19T15:12:06.199Z,1.60
2018-06-19T15:14:33.476Z,3.62
2018-06-19T15:17:01.132Z,2.87
2018-06-19T15:19:28.404Z,3.17
2018-06-19T15:21:55.904Z,1.87
2018-06-19T15:24:23.160Z,2.20
2018-06-19T15:26:50.430Z,2.37
2018-06-19T15:29:17.676Z,3.75
2018-06-19T15:31:44.924Z,2.10
2018-06-19T15:34:12.167Z,2.40
2018-06-19T15:36:39.477Z,4.50
2018-06-19T15:39:08.655Z,1.80
2018-06-19T15:41:36.095Z,2.95
2018-06-19T15:44:03.556Z,3.37
2018-06-19T15:46:30.783Z,4.50
2018-06-19T15:48:58.075Z,2.40
2018-06-19T15:51:25.366Z,3.62
2018-06-19T15:53:52.642Z,3.87
2018-06-19T15:56:19.938Z,1.70
2018-06-19T15:58:47.207Z,1.70
2018-06-19T16:01:14.509Z,2.72
2018-06-19T16:03:41.779Z,2.85
2018-06-19T16:06:09.048Z,2.17
2018-06-19T16:08:36.303Z,4.17
2018-06-19T16:11:03.607Z,3.77
2018-06-19T16:13:30.849Z,3.67
2018-06-19T16:15:58.140Z,6.33
2018-06-19T16:18:25.403Z,2.40
2018-06-19T16:20:52.699Z,2.17
2018-06-19T16:23:19.939Z,3.10
2018-06-19T16:25:47.179Z,2.22
2018-06-19T16:28:14.443Z,3.40
2018-06-19T16:30:41.762Z,2.72
2018-06-19T16:33:09.008Z,3.00
2018-06-19T16:35:36.252Z,3.05
2018-06-19T16:38:03.706Z,2.87
2018-06-19T16:40:30.995Z,1.92
2018-06-19T16:42:58.259Z,4.45
2018-06-19T16:45:25.558Z,3.60
2018-06-19T16:47:52.779Z,2.08
2018-06-19T16:50:20.020Z,3.27
2018-06-19T16:52:48.186Z,3.00
2018-06-19T16:55:15.451Z,4.08
2018-06-19T16:57:45.156Z,2.77
2018-06-19T17:00:12.508Z,2.90
2018-06-19T17:02:39.737Z,3.08
2018-06-19T17:05:06.999Z,2.50
2018-06-19T17:07:34.231Z,5.00
2018-06-19T17:10:01.493Z,2.52
2018-06-19T17:12:28.756Z,5.42
2018-06-19T17:14:56.008Z,3.10
2018-06-19T17:17:23.314Z,2.80
2018-06-19T17:19:50.591Z,2.52
2018-06-19T17:22:17.864Z,4.55
2018-06-19T17:24:45.147Z,3.47
2018-06-19T17:27:12.412Z,2.20
2018-06-19T17:29:39.664Z,4.55
2018-06-19T17:32:06.919Z,3.33
2018-06-19T17:34:34.388Z,2.55
2018-06-19T17:37:01.796Z,4.20
2018-06-19T17:39:29.022Z,4.65
2018-06-19T17:41:56.276Z,4.47
2018-06-19T17:44:23.531Z,3.17
2018-06-19T17:46:50.828Z,2.52
2018-06-19T17:49:18.087Z,2.72
2018-06-19T17:51:45.475Z,3.33
2018-06-19T17:54:12.744Z,2.30
2018-06-19T17:56:40.006Z,4.00
2018-06-19T17:59:07.276Z,4.12
2018-06-19T18:01:34.543Z,2.42
2018-06-19T18:04:01.831Z,3.65
2018-06-19T18:06:29.099Z,5.55
2018-06-19T18:08:56.359Z,4.60
2018-06-19T18:11:24.493Z,3.25
2018-06-19T18:13:51.808Z,4.03
2018-06-19T18:16:19.072Z,5.10
2018-06-19T18:18:46.375Z,3.50
2018-06-19T18:21:13.647Z,3.47
2018-06-19T18:23:40.980Z,2.85
2018-06-19T18:26:08.237Z,5.33
2018-06-19T18:28:35.600Z,5.70
2018-06-19T18:31:02.898Z,3.92
2018-06-19T18:33:30.182Z,5.17
2018-06-19T18:35:57.460Z,5.80
2018-06-19T18:38:25.095Z,3.05
2018-06-19T18:40:52.426Z,6.22
2018-06-19T18:43:19.768Z,4.65
2018-06-19T18:45:47.065Z,4.70
2018-06-19T18:48:14.331Z,4.08
2018-06-19T18:50:41.615Z,4.37
2018-06-19T18:53:08.907Z,4.37
2018-06-19T18:55:36.205Z,2.83
2018-06-19T18:58:03.494Z,4.22
2018-06-19T19:00:30.782Z,5.22
2018-06-19T19:02:58.138Z,4.10
2018-06-19T19:05:25.551Z,3.42
2018-06-19T19:07:52.839Z,3.65
2018-06-19T19:10:25.801Z,3.22
2018-06-19T19:12:53.410Z,6.75
2018-06-19T19:15:26.489Z,3.80
2018-06-19T19:17:59.436Z,3.80
2018-06-19T19:20:26.872Z,5.67
2018-06-19T19:22:54.328Z,5.47
2018-06-19T19:25:21.931Z,5.33
2018-06-19T19:27:59.424Z,4.00
2018-06-19T19:30:26.772Z,5.33
2018-06-19T19:32:54.107Z,4.12
2018-06-19T19:35:21.546Z,3.45
2018-06-19T19:37:55.324Z,4.65
2018-06-19T19:40:22.807Z,4.47
2018-06-19T19:42:50.141Z,3.95
2018-06-19T19:45:17.508Z,5.03
2018-06-19T19:47:51.294Z,3.90
2018-06-19T19:50:18.591Z,8.08
2018-06-19T19:52:46.033Z,4.20
2018-06-19T19:55:13.359Z,3.90
2018-06-19T19:57:46.596Z,5.60
2018-06-19T20:00:19.033Z,4.95
2018-06-19T20:02:46.875Z,5.97
2018-06-19T20:05:14.191Z,4.60
2018-06-19T20:07:41.456Z,4.45
2018-06-19T20:10:08.755Z,4.10
2018-06-19T20:12:36.066Z,4.72
2018-06-19T20:15:03.627Z,4.67
2018-06-19T20:17:30.907Z,4.83
2018-06-19T20:19:58.509Z,4.40
2018-06-19T20:22:25.874Z,5.60
2018-06-19T20:24:53.120Z,5.05
2018-06-19T20:27:20.392Z,3.98
2018-06-19T20:29:47.948Z,5.75
2018-06-19T20:32:15.276Z,4.87
2018-06-19T20:34:42.547Z,5.60
2018-06-19T20:37:09.828Z,4.33
2018-06-19T20:39:37.112Z,7.55
2018-06-19T20:42:04.443Z,7.35
2018-06-19T20:44:31.755Z,4.50
2018-06-19T20:46:59.152Z,7.45
2018-06-19T20:49:26.616Z,4.62
2018-06-19T20:51:53.925Z,5.87
2018-06-19T20:54:21.308Z,4.35
2018-06-19T20:56:48.768Z,4.75
2018-06-19T20:59:16.129Z,14.38
2018-06-19T21:01:43.755Z,9.88
2018-06-19T21:04:11.119Z,10.70
2018-06-19T21:06:38.462Z,10.10
2018-06-19T21:09:10.025Z,7.00
2018-06-19T21:11:37.323Z,7.40
2018-06-19T21:14:04.636Z,5.25
2018-06-19T21:16:31.983Z,7.60
2018-06-19T21:18:59.292Z,6.03
2018-06-19T21:21:26.981Z,6.92
2018-06-19T21:23:54.299Z,4.90
2018-06-19T21:26:21.588Z,5.30
2018-06-19T21:28:48.871Z,4.78
2018-06-19T21:31:16.187Z,5.42
2018-06-19T21:33:43.544Z,6.67
2018-06-19T21:36:11.132Z,5.58
2018-06-19T21:38:38.516Z,5.37
2018-06-19T21:41:06.244Z,6.60
2018-06-19T21:43:33.594Z,7.12
2018-06-19T21:46:00.964Z,9.53
2018-06-19T21:48:28.309Z,9.25
2018-06-19T21:50:55.870Z,10.18
2018-06-19T21:53:23.186Z,12.70
2018-06-19T21:55:50.554Z,11.28
2018-06-19T21:58:18.008Z,8.55
2018-06-19T22:00:45.315Z,5.80
2018-06-19T22:03:12.756Z,7.75
2018-06-19T22:05:40.008Z,5.10
2018-06-19T22:08:07.324Z,7.65
2018-06-19T22:10:34.678Z,6.62
2018-06-19T22:13:01.977Z,15.90
2018-06-19T22:15:29.351Z,14.60
2018-06-19T22:17:57.211Z,11.78
2018-06-19T22:20:24.735Z,16.30
2018-06-19T22:22:52.326Z,14.00
2018-06-19T22:25:19.666Z,11.28
2018-06-19T22:27:47.408Z,9.90
2018-06-19T22:30:14.707Z,7.78
2018-06-19T22:32:42.045Z,7.45
2018-06-19T22:35:09.414Z,6.80
2018-06-19T22:37:36.687Z,11.12
2018-06-19T22:40:04.024Z,8.68
2018-06-19T22:42:31.904Z,6.80
2018-06-19T22:44:59.356Z,7.62
2018-06-19T22:47:26.748Z,7.10
2018-06-19T22:49:54.043Z,7.12
2018-06-19T22:52:21.533Z,7.00
2018-06-19T22:54:48.881Z,7.00
2018-06-19T22:57:16.183Z,7.35
2018-06-19T22:59:44.176Z,5.83
2018-06-19T23:02:11.654Z,7.50
2018-06-19T23:04:39.039Z,6.85
2018-06-19T23:07:06.311Z,7.97
2018-06-19T23:09:33.651Z,6.40
2018-06-19T23:12:01.015Z,6.95
2018-06-19T23:14:28.274Z,7.72
2018-06-19T23:16:55.626Z,7.10
2018-06-19T23:19:22.887Z,8.63
2018-06-19T23:21:50.299Z,8.93
2018-06-19T23:24:17.795Z,6.83
2018-06-19T23:26:45.123Z,7.72
2018-06-19T23:29:12.529Z,6.65
2018-06-19T23:31:39.813Z,7.67
2018-06-19T23:34:07.376Z,9.10
2018-06-19T23:36:34.696Z,6.65
2018-06-19T23:39:02.473Z,7.77
2018-06-19T23:41:29.743Z,7.35
2018-06-19T23:43:57.279Z,8.50
2018-06-19T23:46:24.567Z,8.43
2018-06-19T23:48:51.892Z,7.37
2018-06-19T23:51:19.297Z,7.10
2018-06-19T23:53:46.612Z,9.13
2018-06-19T23:56:14.389Z,8.50
2018-06-19T23:58:42.052Z,8.18
